Airfield :
LOGIN :

Register | Disclaimer

   EN    FR    IT 

 










Legend :    VFR   Marginal VFR   IFR   Intensive IFR   Very Intensive IFR
Visi :
Ceiling :
>= 8 km
>= 3000ft
5 to 8 km
1000 to 3000 ft
1500m to 5 km
500 to 1000 ft
800 to 1500m
200 to 500 ft
< 800m
< 200 ft
Symbols :   Thunderstorms  Fog  Heavy snow  Heavy precipitations  Wind > 20 kt
SIGMETs :     Misc.  Thunderstorms  Icing  Turbulence  Mountain Waves  Volcanic Ashes






- Airport Elevation : 219 ft
- IATA code : DNR


LFRD - Dinard

CURRENT METAR :
  • 240400Z AUTO 21012KT 9999 -RA FEW036/// BKN066/// OVC076/// ///CB 12/09 Q1003 TEMPO 4000 SHRA BECMG 20015G25KT

EXPIRED METARs :
  • 240330Z AUTO 20011KT 9999 ///CB 11/09 Q1003 TEMPO 4000 SHRA BECMG 20015G25KT
  • 240300Z AUTO 19012KT CAVOK 11/09 Q1003 TEMPO 4000 SHRA SCT015CB BKN020TCU BECMG 20015G25KT
  • 240230Z AUTO 19010KT CAVOK 10/08 Q1004 TEMPO 4000 SHRA SCT015CB BKN020TCU BECMG 20015G25KT
  • 240200Z AUTO 19009KT CAVOK 09/08 Q1005 BECMG 20015G25KT
  • 240130Z AUTO 18008KT CAVOK 09/08 Q1005 BECMG 20015G25KT

TAF TAF LFRD
Valid from the 24 at 00:00 until the 25 at 00:00 UTC


232300Z 2400/2424 21010KT 9999 BKN020
BECMG 2401/2404 20015G25KT
TEMPO 2404/2417 4000 SHRA SCT015CB BKN020TCU
PROB30
TEMPO 2410/2415 20020G30KT 2000 TSRA BKN015CB
TEMPO 2420/2424 4000 SHRA SCT015CB BKN020TCU
PROB30
TEMPO 2422/2424 2000 TSRA BKN015CB
BECMG 2421/2424 26020G35KT
ATIS : +33 2 99 16 81 50



MET'MAP, your aeronautical weather chart ! - Copyright ORBIFLY December 2007 - Disclaimer

ORBIFLY MET'MAP TEAM :

Programming & Development : Alexandra Zaïnal
Concept & original design : Baudouin d'Aumeries
Assistance for programming : Marc-Olivier Méhu
Technical & hardware support : Manuel Goepfert

Contact : metmap@orbifly.com




SOURCES & CREDITS :

   NOAA